sim
Sign-in with your pilot id or email,
or register
Callsign
Passwort

Schedule Details

Flight Number: DLH1973
Departure: Cagliari Elmas Airport (LIEE) at 12:00
Arrival: Munich Airport (EDDM) at 14:00
Route: Lufthansa Passenger Schedule. Enter filed route here before submitting Pirep.

Weather Information
Getting current METAR information for LIEE 211320Z 19009KT 9999 SCT030 28/20 Q1015
Getting current METAR information for EDDM 211320Z 03005KT 310V110 CAVOK 23/13 Q1016 NOSIG

Schedule Frequency

Route Map